createdAt,value
2018-08-27T00:00:22.096Z,71.06
2018-08-27T00:01:22.094Z,71.12
2018-08-27T00:02:22.093Z,71.78
2018-08-27T00:03:22.086Z,71.31
2018-08-27T00:04:22.089Z,71.44
2018-08-27T00:05:22.085Z,71.34
2018-08-27T00:06:22.082Z,70.67
2018-08-27T00:07:22.076Z,70.64
2018-08-27T00:08:22.072Z,70.73
2018-08-27T00:09:22.072Z,70.73
2018-08-27T00:10:22.069Z,70.96
2018-08-27T00:11:22.065Z,70.77
2018-08-27T00:12:22.061Z,70.77
2018-08-27T00:13:22.059Z,70.77
2018-08-27T00:14:22.056Z,70.92
2018-08-27T00:15:22.054Z,71.06
2018-08-27T00:16:22.051Z,70.64
2018-08-27T00:17:22.049Z,70.58
2018-08-27T00:18:22.045Z,70.83
2018-08-27T00:19:22.041Z,71.06
2018-08-27T00:20:22.043Z,70.54
2018-08-27T00:21:22.038Z,70.77
2018-08-27T00:22:22.034Z,71.63
2018-08-27T00:23:22.032Z,71.53
2018-08-27T00:24:22.028Z,71.44
2018-08-27T00:25:22.026Z,71.12
2018-08-27T00:26:22.024Z,71.02
2018-08-27T00:27:22.021Z,71.50
2018-08-27T00:28:22.017Z,71.41
2018-08-27T00:29:22.020Z,71.31
2018-08-27T00:30:22.012Z,71.69
2018-08-27T00:31:22.008Z,71.98
2018-08-27T00:32:22.006Z,71.98
2018-08-27T00:33:22.004Z,72.55
2018-08-27T00:34:22.000Z,72.45
2018-08-27T00:35:21.997Z,72.45
2018-08-27T00:36:21.995Z,72.78
2018-08-27T00:37:21.992Z,72.58
2018-08-27T00:38:21.990Z,72.49
2018-08-27T00:39:21.987Z,72.68
2018-08-27T00:40:21.984Z,72.45
2018-08-27T00:41:21.983Z,73.07
2018-08-27T00:42:21.980Z,73.41
2018-08-27T00:43:21.977Z,73.16
2018-08-27T00:44:21.973Z,73.63
2018-08-27T00:45:21.972Z,73.50
2018-08-27T00:46:21.973Z,73.54
2018-08-27T00:47:21.963Z,73.63
2018-08-27T00:48:21.962Z,73.54
2018-08-27T00:49:21.958Z,74.02
2018-08-27T00:50:21.955Z,74.08
2018-08-27T00:51:21.953Z,73.98
2018-08-27T00:52:21.949Z,74.49
2018-08-27T00:53:21.951Z,74.17
2018-08-27T00:54:21.947Z,73.92
2018-08-27T00:55:21.940Z,74.55
2018-08-27T00:56:21.942Z,74.84
2018-08-27T00:57:21.937Z,74.49
2018-08-27T00:58:21.939Z,74.78
2018-08-27T00:59:21.937Z,74.40
2018-08-27T01:00:21.929Z,74.46
2018-08-27T01:01:21.926Z,74.59
2018-08-27T01:02:21.925Z,74.49
2018-08-27T01:03:21.920Z,74.49
2018-08-27T01:04:21.916Z,74.46
2018-08-27T01:05:21.914Z,74.74
2018-08-27T01:06:21.909Z,74.65
2018-08-27T01:07:21.915Z,74.65
2018-08-27T01:08:21.902Z,75.13
2018-08-27T01:09:21.901Z,74.46
2018-08-27T01:10:21.902Z,75.13
2018-08-27T01:11:21.895Z,74.55
2018-08-27T01:12:21.892Z,74.46
2018-08-27T01:13:21.890Z,74.65
2018-08-27T01:14:21.885Z,74.74
2018-08-27T01:15:21.889Z,74.46
2018-08-27T01:16:21.881Z,74.46
2018-08-27T01:17:21.878Z,74.55
2018-08-27T01:18:21.873Z,73.98
2018-08-27T01:19:21.871Z,74.55
2018-08-27T01:20:21.867Z,75.03
2018-08-27T01:21:21.868Z,75.03
2018-08-27T01:22:21.872Z,74.65
2018-08-27T01:23:21.860Z,74.08
2018-08-27T01:24:21.861Z,74.27
2018-08-27T01:25:21.852Z,74.37
2018-08-27T01:26:21.857Z,74.46
2018-08-27T01:27:21.848Z,74.55
2018-08-27T01:28:21.844Z,74.17
2018-08-27T01:29:21.841Z,74.17
2018-08-27T01:30:21.840Z,74.84
2018-08-27T01:31:21.834Z,75.13
2018-08-27T01:32:21.831Z,74.74
2018-08-27T01:33:21.828Z,74.37
2018-08-27T01:34:21.828Z,74.55
2018-08-27T01:35:21.823Z,74.74
2018-08-27T01:36:21.821Z,74.46
2018-08-27T01:37:21.818Z,74.93
2018-08-27T01:38:21.816Z,75.03
2018-08-27T01:39:21.813Z,75.13
2018-08-27T01:40:21.807Z,75.13
2018-08-27T01:41:21.808Z,75.03
2018-08-27T01:42:21.803Z,75.70
2018-08-27T01:43:21.798Z,75.22
2018-08-27T01:44:21.797Z,75.13
2018-08-27T01:45:21.794Z,75.22
2018-08-27T01:46:21.788Z,75.70
2018-08-27T01:47:21.787Z,76.27
2018-08-27T01:48:21.782Z,76.37
2018-08-27T01:49:21.782Z,75.89
2018-08-27T01:50:21.776Z,76.27
2018-08-27T01:51:21.772Z,76.08
2018-08-27T01:52:21.770Z,76.37
2018-08-27T01:53:21.768Z,76.46
2018-08-27T01:54:21.765Z,76.27
2018-08-27T01:55:21.760Z,76.27
2018-08-27T01:56:21.757Z,76.56
2018-08-27T01:57:21.763Z,76.65
2018-08-27T01:58:21.750Z,76.37
2018-08-27T01:59:21.795Z,76.46
2018-08-27T02:00:21.743Z,76.56
2018-08-27T02:01:21.740Z,76.46
2018-08-27T02:02:21.741Z,76.18
2018-08-27T02:03:21.734Z,76.46
2018-08-27T02:04:21.731Z,76.75
2018-08-27T02:05:21.727Z,76.37
2018-08-27T02:06:21.727Z,76.37
2018-08-27T02:07:21.720Z,76.33
2018-08-27T02:08:21.718Z,76.52
2018-08-27T02:09:21.726Z,76.37
2018-08-27T02:10:21.711Z,76.65
2018-08-27T02:11:21.707Z,76.52
2018-08-27T02:12:21.703Z,76.27
2018-08-27T02:13:21.699Z,76.23
2018-08-27T02:14:21.698Z,75.70
2018-08-27T02:15:21.694Z,76.42
2018-08-27T02:16:21.689Z,76.27
2018-08-27T02:17:21.688Z,76.33
2018-08-27T02:18:21.683Z,76.23
2018-08-27T02:19:21.681Z,76.33
2018-08-27T02:20:21.678Z,76.18
2018-08-27T02:21:21.673Z,76.23
2018-08-27T02:22:21.670Z,76.23
2018-08-27T02:23:21.666Z,76.33
2018-08-27T02:24:21.665Z,76.33
2018-08-27T02:25:21.659Z,76.71
2018-08-27T02:26:21.660Z,76.62
2018-08-27T02:27:21.652Z,77.00
2018-08-27T02:28:21.649Z,76.90
2018-08-27T02:29:21.646Z,76.71
2018-08-27T02:30:21.645Z,76.90
2018-08-27T02:31:21.640Z,76.81
2018-08-27T02:32:21.649Z,76.81
2018-08-27T02:33:21.632Z,76.71
2018-08-27T02:34:21.630Z,76.62
2018-08-27T02:35:21.625Z,76.90
2018-08-27T02:36:21.624Z,76.81
2018-08-27T02:37:21.622Z,76.71
2018-08-27T02:38:21.615Z,76.62
2018-08-27T02:39:21.610Z,76.62
2018-08-27T02:40:21.616Z,76.62
2018-08-27T02:41:21.604Z,76.90
2018-08-27T02:42:21.601Z,76.81
2018-08-27T02:43:21.597Z,76.33
2018-08-27T02:44:21.594Z,77.00
2018-08-27T02:45:21.595Z,76.81
2018-08-27T02:46:21.590Z,76.90
2018-08-27T02:47:21.584Z,76.52
2018-08-27T02:48:21.582Z,77.28
2018-08-27T02:49:21.576Z,77.09
2018-08-27T02:50:21.572Z,77.38
2018-08-27T02:51:21.569Z,77.19
2018-08-27T02:52:21.565Z,77.28
2018-08-27T02:53:21.568Z,77.57
2018-08-27T02:54:21.559Z,77.09
2018-08-27T02:55:21.555Z,77.47
2018-08-27T02:56:21.549Z,77.47
2018-08-27T02:57:21.549Z,77.86
2018-08-27T02:58:21.543Z,77.86
2018-08-27T02:59:21.541Z,77.86
2018-08-27T03:00:21.535Z,77.57
2018-08-27T03:01:21.534Z,77.86
2018-08-27T03:02:21.529Z,77.67
2018-08-27T03:03:21.524Z,78.05
2018-08-27T03:04:21.521Z,77.76
2018-08-27T03:05:21.518Z,78.14
2018-08-27T03:06:21.514Z,77.57
2018-08-27T03:07:21.515Z,77.86
2018-08-27T03:08:21.508Z,77.57
2018-08-27T03:09:21.507Z,77.86
2018-08-27T03:10:21.498Z,77.86
2018-08-27T03:11:21.496Z,78.05
2018-08-27T03:12:21.493Z,77.47
2018-08-27T03:13:21.487Z,78.01
2018-08-27T03:14:21.485Z,78.23
2018-08-27T03:15:21.479Z,78.05
2018-08-27T03:16:21.476Z,78.23
2018-08-27T03:17:21.473Z,77.76
2018-08-27T03:18:36.456Z,77.67
2018-08-27T03:19:21.466Z,77.57
2018-08-27T03:20:21.464Z,77.76
2018-08-27T03:21:21.465Z,77.57
2018-08-27T03:22:21.455Z,77.86
2018-08-27T03:23:21.451Z,77.28
2018-08-27T03:24:21.448Z,77.47
2018-08-27T03:25:21.448Z,77.28
2018-08-27T03:26:21.440Z,77.38
2018-08-27T03:27:21.434Z,77.57
2018-08-27T03:28:21.432Z,77.38
2018-08-27T03:29:21.433Z,77.38
2018-08-27T03:30:21.427Z,77.19
2018-08-27T03:31:21.421Z,77.38
2018-08-27T03:32:21.420Z,77.57
2018-08-27T03:33:21.414Z,77.28
2018-08-27T03:34:21.412Z,77.38
2018-08-27T03:35:21.405Z,77.76
2018-08-27T03:36:21.404Z,78.23
2018-08-27T03:37:21.399Z,78.14
2018-08-27T03:38:21.397Z,78.23
2018-08-27T03:39:21.392Z,78.14
2018-08-27T03:40:21.387Z,78.23
2018-08-27T03:41:21.383Z,78.62
2018-08-27T03:42:21.384Z,78.62
2018-08-27T03:43:21.378Z,78.62
2018-08-27T03:44:21.373Z,78.62
2018-08-27T03:45:21.369Z,78.91
2018-08-27T03:46:21.368Z,79.35
2018-08-27T03:47:21.360Z,79.06
2018-08-27T03:48:21.358Z,79.15
2018-08-27T03:49:21.355Z,79.63
2018-08-27T03:50:21.349Z,79.44
2018-08-27T03:51:21.346Z,78.86
2018-08-27T03:52:21.343Z,79.72
2018-08-27T03:53:21.343Z,79.44
2018-08-27T03:54:21.335Z,79.53
2018-08-27T03:55:21.332Z,79.53
2018-08-27T03:56:21.330Z,79.53
2018-08-27T03:57:21.325Z,79.25
2018-08-27T03:58:21.324Z,79.63
2018-08-27T03:59:21.317Z,79.53
2018-08-27T04:00:21.317Z,79.72
2018-08-27T04:01:21.316Z,79.35
2018-08-27T04:02:21.307Z,79.06
2018-08-27T04:03:21.300Z,79.35
2018-08-27T04:04:21.296Z,79.10
2018-08-27T04:05:21.379Z,78.77
2018-08-27T04:06:21.291Z,79.10
2018-08-27T04:07:21.286Z,78.81
2018-08-27T04:08:21.283Z,78.05
2018-08-27T04:09:21.279Z,78.05
2018-08-27T04:10:21.276Z,77.76
2018-08-27T04:11:21.275Z,77.67
2018-08-27T04:12:21.267Z,77.47
2018-08-27T04:13:21.264Z,77.47
2018-08-27T04:14:21.262Z,77.47
2018-08-27T04:15:21.255Z,77.47
2018-08-27T04:16:21.255Z,77.67
2018-08-27T04:17:21.248Z,77.28
2018-08-27T04:18:21.245Z,77.19
2018-08-27T04:19:21.241Z,77.19
2018-08-27T04:20:21.237Z,77.67
2018-08-27T04:21:21.236Z,76.52
2018-08-27T04:22:21.230Z,76.52
2018-08-27T04:23:21.226Z,76.81
2018-08-27T04:24:21.225Z,76.62
2018-08-27T04:25:21.219Z,76.23
2018-08-27T04:26:21.216Z,75.95
2018-08-27T04:27:21.211Z,75.95
2018-08-27T04:28:21.210Z,76.23
2018-08-27T04:29:21.205Z,75.85
2018-08-27T04:30:21.200Z,75.57
2018-08-27T04:31:21.202Z,75.95
2018-08-27T04:32:21.193Z,76.14
2018-08-27T04:33:21.190Z,75.95
2018-08-27T04:34:21.187Z,75.76
2018-08-27T04:35:21.192Z,75.76
2018-08-27T04:36:21.178Z,75.37
2018-08-27T04:37:21.179Z,76.04
2018-08-27T04:38:21.182Z,75.95
2018-08-27T04:39:21.167Z,75.76
2018-08-27T04:40:21.165Z,75.57
2018-08-27T04:41:21.162Z,75.57
2018-08-27T04:42:21.171Z,75.18
2018-08-27T04:43:21.155Z,75.47
2018-08-27T04:44:21.150Z,75.37
2018-08-27T04:45:21.149Z,75.37
2018-08-27T04:46:21.144Z,75.66
2018-08-27T04:47:21.192Z,74.71
2018-08-27T04:48:21.138Z,75.13
2018-08-27T04:49:21.131Z,74.65
2018-08-27T04:50:21.128Z,74.65
2018-08-27T04:51:21.130Z,74.46
2018-08-27T04:52:21.128Z,74.08
2018-08-27T04:53:21.117Z,74.27
2018-08-27T04:54:21.115Z,74.08
2018-08-27T04:55:21.111Z,73.32
2018-08-27T04:56:21.120Z,73.12
2018-08-27T04:57:21.106Z,73.07
2018-08-27T04:58:21.102Z,73.25
2018-08-27T04:59:21.098Z,72.58
2018-08-27T05:00:21.097Z,72.93
2018-08-27T05:01:21.090Z,73.50
2018-08-27T05:02:21.089Z,73.69
2018-08-27T05:03:21.085Z,73.41
2018-08-27T05:04:21.083Z,73.32
2018-08-27T05:05:21.079Z,73.22
2018-08-27T05:06:21.076Z,72.49
2018-08-27T05:07:21.078Z,72.45
2018-08-27T05:08:21.069Z,72.39
2018-08-27T05:09:21.069Z,72.30
2018-08-27T05:10:21.064Z,71.72
2018-08-27T05:11:21.063Z,71.92
2018-08-27T05:12:21.056Z,71.06
2018-08-27T05:13:21.053Z,71.63
2018-08-27T05:14:21.054Z,71.25
2018-08-27T05:15:21.047Z,71.63
2018-08-27T05:16:21.043Z,71.25
2018-08-27T05:17:21.040Z,70.67
2018-08-27T05:18:21.038Z,70.87
2018-08-27T05:19:21.069Z,71.06
2018-08-27T05:20:21.047Z,71.15
2018-08-27T05:21:21.040Z,71.25
2018-08-27T05:22:21.026Z,70.42
2018-08-27T05:23:21.023Z,70.33
2018-08-27T05:24:21.025Z,69.85
2018-08-27T05:25:21.037Z,70.23
2018-08-27T05:26:21.022Z,69.37
2018-08-27T05:27:21.016Z,69.37
2018-08-27T05:28:21.035Z,69.66
2018-08-27T05:29:21.066Z,69.27
2018-08-27T05:30:21.067Z,68.99
2018-08-27T05:31:21.031Z,68.61
2018-08-27T05:32:21.000Z,68.70
2018-08-27T05:33:21.030Z,67.97
2018-08-27T05:34:21.001Z,67.78
2018-08-27T05:35:20.997Z,67.97
2018-08-27T05:36:21.009Z,68.07
2018-08-27T05:37:21.006Z,68.16
2018-08-27T05:38:20.985Z,67.40
2018-08-27T05:39:20.994Z,67.69
2018-08-27T05:40:21.039Z,67.49
2018-08-27T05:41:21.009Z,67.30
2018-08-27T05:42:20.992Z,67.30
2018-08-27T05:43:20.990Z,66.83
2018-08-27T05:44:21.003Z,67.14
2018-08-27T05:45:21.008Z,66.38
2018-08-27T05:46:20.984Z,66.57
2018-08-27T05:47:20.976Z,66.19
2018-08-27T05:48:20.980Z,66.09
2018-08-27T05:49:20.967Z,66.09
2018-08-27T05:50:20.964Z,65.90
2018-08-27T05:51:20.980Z,65.90
2018-08-27T05:52:21.049Z,66.22
2018-08-27T05:53:20.980Z,65.94
2018-08-27T05:54:20.979Z,65.90
2018-08-27T05:55:20.987Z,66.13
2018-08-27T05:56:20.997Z,65.26
2018-08-27T05:57:21.010Z,65.17
2018-08-27T05:58:20.975Z,65.26
2018-08-27T05:59:21.009Z,64.50
2018-08-27T06:00:20.975Z,65.08
2018-08-27T06:01:21.074Z,64.88
2018-08-27T06:02:20.976Z,64.53
2018-08-27T06:03:20.994Z,64.25
2018-08-27T06:04:20.998Z,64.40
2018-08-27T06:05:21.011Z,64.22
2018-08-27T06:06:20.950Z,63.93
2018-08-27T06:07:21.007Z,63.86
2018-08-27T06:08:21.047Z,63.48
2018-08-27T06:09:21.043Z,63.48
2018-08-27T06:10:20.936Z,63.48
2018-08-27T06:11:20.965Z,62.81
2018-08-27T06:12:20.928Z,62.71
2018-08-27T06:13:20.959Z,62.43
2018-08-27T06:14:20.932Z,62.62
2018-08-27T06:15:20.918Z,62.43
2018-08-27T06:16:21.115Z,62.65
2018-08-27T06:17:20.951Z,61.85
2018-08-27T06:18:20.959Z,62.33
2018-08-27T06:19:20.925Z,61.85
2018-08-27T06:20:20.981Z,61.79
2018-08-27T06:21:20.947Z,62.17
2018-08-27T06:22:21.036Z,61.98
2018-08-27T06:23:20.941Z,61.02
2018-08-27T06:24:20.961Z,61.31
2018-08-27T06:25:20.956Z,61.50
2018-08-27T06:26:20.953Z,60.93
2018-08-27T06:27:20.945Z,60.93
2018-08-27T06:28:20.971Z,60.73
2018-08-27T06:29:21.043Z,60.64
2018-08-27T06:30:20.952Z,60.44
2018-08-27T06:31:20.942Z,60.44
2018-08-27T06:32:21.009Z,60.54
2018-08-27T06:33:21.059Z,60.16
2018-08-27T06:34:20.949Z,60.47
2018-08-27T06:35:20.950Z,60.47
2018-08-27T06:36:20.965Z,60.19
2018-08-27T06:37:20.916Z,60.38
2018-08-27T06:38:20.934Z,59.80
2018-08-27T06:39:20.981Z,59.52
2018-08-27T06:40:20.930Z,59.61
2018-08-27T06:41:20.902Z,59.80
2018-08-27T06:42:21.105Z,59.61
2018-08-27T06:43:20.895Z,60.09
2018-08-27T06:44:21.025Z,60.09
2018-08-27T06:45:20.992Z,59.90
2018-08-27T06:46:20.975Z,59.33
2018-08-27T06:47:20.975Z,59.23
2018-08-27T06:48:21.408Z,58.87
2018-08-27T06:49:21.056Z,58.59
2018-08-27T06:50:20.965Z,59.16
2018-08-27T06:51:20.984Z,59.16
2018-08-27T06:52:21.094Z,60.12
2018-08-27T06:53:20.882Z,59.45
2018-08-27T06:54:20.871Z,59.26
2018-08-27T06:55:21.118Z,59.36
2018-08-27T06:56:20.869Z,58.30
2018-08-27T06:57:20.944Z,58.59
2018-08-27T06:58:20.867Z,57.95
2018-08-27T06:59:20.867Z,56.98
2018-08-27T07:00:20.896Z,56.76
2018-08-27T07:01:20.871Z,56.79
2018-08-27T07:02:20.970Z,56.31
2018-08-27T07:03:20.891Z,56.22
2018-08-27T07:04:20.898Z,55.64
2018-08-27T07:05:21.051Z,55.45
2018-08-27T07:06:21.308Z,55.64
2018-08-27T07:07:21.155Z,55.55
2018-08-27T07:08:20.913Z,55.64
2018-08-27T07:09:20.903Z,55.16
2018-08-27T07:10:20.895Z,55.29
2018-08-27T07:11:20.873Z,55.10
2018-08-27T07:12:20.883Z,54.90
2018-08-27T07:13:20.879Z,55.00
2018-08-27T07:14:20.866Z,54.42
2018-08-27T07:15:20.874Z,54.61
2018-08-27T07:16:20.865Z,54.80
2018-08-27T07:17:20.864Z,55.00
2018-08-27T07:18:20.868Z,55.10
2018-08-27T07:19:20.869Z,54.42
2018-08-27T07:20:21.261Z,54.45
2018-08-27T07:21:21.152Z,53.97
2018-08-27T07:22:20.869Z,53.87
2018-08-27T07:23:20.904Z,53.78
2018-08-27T07:24:20.883Z,53.78
2018-08-27T07:25:21.195Z,53.49
2018-08-27T07:26:21.164Z,53.52
2018-08-27T07:27:20.966Z,53.87
2018-08-27T07:28:21.714Z,53.32
2018-08-27T07:29:20.945Z,53.23
2018-08-27T07:30:20.874Z,52.94
2018-08-27T07:31:20.877Z,52.65
2018-08-27T07:32:20.875Z,52.75
2018-08-27T07:33:20.946Z,52.55
2018-08-27T07:34:20.934Z,51.98
2018-08-27T07:35:20.893Z,52.26
2018-08-27T07:36:21.026Z,51.69
2018-08-27T07:37:20.916Z,51.79
2018-08-27T07:38:20.942Z,52.08
2018-08-27T07:39:20.913Z,51.88
2018-08-27T07:40:20.926Z,51.88
2018-08-27T07:41:20.886Z,51.91
2018-08-27T07:42:20.886Z,51.14
2018-08-27T07:43:21.826Z,51.72
2018-08-27T07:44:20.938Z,51.04
2018-08-27T07:45:20.915Z,50.76
2018-08-27T07:46:20.893Z,50.66
2018-08-27T07:47:20.876Z,50.66
2018-08-27T07:48:20.885Z,50.18
2018-08-27T07:49:20.879Z,50.56
2018-08-27T07:50:20.971Z,50.76
2018-08-27T07:51:21.902Z,50.56
2018-08-27T07:52:20.883Z,50.56
2018-08-27T07:53:20.917Z,50.76
2018-08-27T07:54:20.930Z,50.66
2018-08-27T07:55:20.910Z,50.56
2018-08-27T07:56:20.951Z,49.79
2018-08-27T07:57:20.927Z,49.53
2018-08-27T07:58:20.931Z,49.05
2018-08-27T07:59:20.887Z,48.85
2018-08-27T08:00:20.924Z,48.28
2018-08-27T08:01:20.906Z,47.99
2018-08-27T08:02:20.905Z,48.08
2018-08-27T08:03:20.898Z,47.41
2018-08-27T08:04:20.925Z,47.22
2018-08-27T08:05:20.916Z,47.31
2018-08-27T08:06:20.903Z,46.84
2018-08-27T08:07:21.083Z,46.64
2018-08-27T08:08:20.913Z,46.93
2018-08-27T08:09:20.938Z,47.03
2018-08-27T08:10:21.326Z,47.13
2018-08-27T08:11:21.805Z,47.03
2018-08-27T08:12:21.810Z,47.13
2018-08-27T08:13:21.253Z,47.22
2018-08-27T08:14:20.987Z,46.84
2018-08-27T08:15:20.906Z,46.84
2018-08-27T08:16:20.921Z,47.13
2018-08-27T08:17:21.806Z,46.64
2018-08-27T08:18:20.929Z,47.31
2018-08-27T08:19:20.939Z,46.64
2018-08-27T08:20:20.921Z,46.84
2018-08-27T08:21:20.925Z,46.84
2018-08-27T08:22:20.923Z,46.19
2018-08-27T08:23:21.072Z,46.19
2018-08-27T08:24:21.083Z,46.95
2018-08-27T08:25:21.097Z,46.09
2018-08-27T08:26:20.925Z,45.90
2018-08-27T08:27:20.927Z,45.99
2018-08-27T08:28:20.933Z,45.90
2018-08-27T08:29:20.961Z,45.70
2018-08-27T08:30:20.930Z,45.61
2018-08-27T08:31:20.991Z,46.09
2018-08-27T08:32:21.148Z,45.73
2018-08-27T08:33:21.084Z,45.44
2018-08-27T08:34:20.943Z,45.44
2018-08-27T08:35:20.935Z,44.96
2018-08-27T08:36:20.941Z,44.96
2018-08-27T08:37:20.941Z,45.05
2018-08-27T08:38:20.977Z,45.05
2018-08-27T08:39:21.139Z,45.36
2018-08-27T08:40:20.952Z,45.07
2018-08-27T08:41:21.125Z,44.98
2018-08-27T08:42:21.012Z,45.36
2018-08-27T08:43:20.946Z,45.17
2018-08-27T08:44:20.944Z,45.36
2018-08-27T08:45:20.953Z,45.07
2018-08-27T08:46:20.967Z,44.49
2018-08-27T08:47:21.003Z,44.59
2018-08-27T08:48:20.964Z,44.31
2018-08-27T08:49:20.958Z,43.54
2018-08-27T08:50:20.973Z,43.82
2018-08-27T08:51:20.963Z,43.73
2018-08-27T08:52:20.976Z,43.82
2018-08-27T08:53:21.004Z,43.85
2018-08-27T08:54:20.996Z,44.04
2018-08-27T08:55:20.966Z,43.65
2018-08-27T08:56:20.973Z,42.88
2018-08-27T08:57:21.185Z,42.49
2018-08-27T08:58:21.019Z,42.40
2018-08-27T08:59:20.990Z,42.40
2018-08-27T09:00:21.017Z,42.30
2018-08-27T09:01:21.237Z,42.21
2018-08-27T09:02:21.009Z,42.02
2018-08-27T09:03:21.002Z,42.40
2018-08-27T09:04:21.020Z,41.82
2018-08-27T09:05:21.018Z,42.11
2018-08-27T09:06:21.082Z,42.59
2018-08-27T09:07:21.019Z,42.23
2018-08-27T09:08:21.170Z,42.13
2018-08-27T09:09:21.030Z,42.13
2018-08-27T09:10:21.013Z,41.46
2018-08-27T09:11:21.003Z,41.46
2018-08-27T09:12:21.051Z,41.94
2018-08-27T09:13:21.083Z,41.75
2018-08-27T09:14:21.006Z,41.65
2018-08-27T09:15:21.017Z,42.42
2018-08-27T09:16:21.021Z,42.42
2018-08-27T09:17:21.255Z,42.15
2018-08-27T09:18:21.039Z,42.13
2018-08-27T09:19:21.035Z,42.63
2018-08-27T09:20:21.045Z,42.83
2018-08-27T09:21:21.028Z,42.13
2018-08-27T09:22:21.149Z,41.75
2018-08-27T09:23:21.244Z,42.23
2018-08-27T09:24:21.048Z,42.23
2018-08-27T09:25:21.046Z,41.36
2018-08-27T09:26:21.072Z,41.36
2018-08-27T09:27:22.049Z,41.86
2018-08-27T09:28:21.174Z,42.54
2018-08-27T09:29:21.060Z,42.15
2018-08-27T09:30:21.283Z,42.35
2018-08-27T09:31:21.069Z,42.05
2018-08-27T09:32:21.567Z,42.54
2018-08-27T09:33:21.057Z,41.67
2018-08-27T09:34:21.064Z,41.48
2018-08-27T09:35:21.068Z,41.38
2018-08-27T09:36:21.071Z,41.77
2018-08-27T09:37:21.067Z,41.77
2018-08-27T09:38:21.078Z,42.15
2018-08-27T09:39:21.166Z,42.35
2018-08-27T09:40:21.074Z,42.05
2018-08-27T09:41:21.076Z,41.78
2018-08-27T09:42:21.079Z,41.69
2018-08-27T09:43:21.081Z,41.60
2018-08-27T09:44:21.092Z,41.20
2018-08-27T09:45:21.086Z,41.11
2018-08-27T09:46:21.176Z,40.63
2018-08-27T09:47:21.118Z,40.82
2018-08-27T09:48:21.187Z,40.55
2018-08-27T09:49:21.123Z,40.55
2018-08-27T09:50:21.205Z,40.84
2018-08-27T09:51:21.202Z,40.75
2018-08-27T09:52:21.216Z,40.65
2018-08-27T09:53:21.120Z,40.75
2018-08-27T09:54:21.156Z,40.26
2018-08-27T09:55:21.170Z,40.82
2018-08-27T09:56:21.215Z,40.53
2018-08-27T09:57:21.177Z,41.11
2018-08-27T09:58:21.234Z,41.02
2018-08-27T09:59:21.124Z,40.53
2018-08-27T10:00:21.390Z,41.02
2018-08-27T10:01:21.168Z,41.02
2018-08-27T10:02:21.210Z,40.82
2018-08-27T10:03:21.214Z,40.82
2018-08-27T10:04:21.210Z,40.82
2018-08-27T10:05:21.197Z,41.09
2018-08-27T10:06:21.239Z,41.09
2018-08-27T10:07:21.204Z,41.50
2018-08-27T10:08:21.207Z,41.40
2018-08-27T10:09:21.198Z,41.78
2018-08-27T10:10:21.202Z,41.69
2018-08-27T10:11:21.337Z,41.48
2018-08-27T10:12:21.297Z,41.67
2018-08-27T10:13:21.296Z,42.15
2018-08-27T10:14:21.185Z,41.96
2018-08-27T10:15:21.238Z,41.77
2018-08-27T10:16:21.272Z,41.86
2018-08-27T10:17:21.199Z,41.77
2018-08-27T10:18:21.213Z,41.67
2018-08-27T10:19:21.221Z,41.77
2018-08-27T10:20:21.222Z,41.96
2018-08-27T10:21:21.414Z,41.96
2018-08-27T10:22:21.385Z,42.35
2018-08-27T10:23:21.264Z,42.05
2018-08-27T10:24:21.263Z,41.77
2018-08-27T10:25:21.948Z,41.77
2018-08-27T10:26:21.437Z,42.44
2018-08-27T10:27:21.286Z,42.35
2018-08-27T10:28:21.270Z,42.44
2018-08-27T10:29:21.231Z,42.73
2018-08-27T10:30:21.280Z,42.54
2018-08-27T10:31:21.281Z,42.63
2018-08-27T10:32:21.225Z,42.35
2018-08-27T10:33:21.255Z,42.25
2018-08-27T10:34:21.235Z,42.35
2018-08-27T10:35:21.265Z,42.44
2018-08-27T10:36:21.283Z,42.36
2018-08-27T10:37:21.378Z,42.46
2018-08-27T10:38:21.246Z,42.27
2018-08-27T10:39:21.263Z,42.36
2018-08-27T10:40:21.296Z,42.66
2018-08-27T10:41:21.264Z,42.94
2018-08-27T10:42:21.265Z,42.66
2018-08-27T10:43:21.272Z,42.66
2018-08-27T10:44:21.332Z,42.75
2018-08-27T10:45:21.249Z,42.94
2018-08-27T10:46:21.303Z,42.94
2018-08-27T10:47:21.277Z,43.14
2018-08-27T10:48:21.306Z,43.35
2018-08-27T10:49:21.440Z,43.06
2018-08-27T10:50:21.912Z,43.45
2018-08-27T10:51:21.581Z,43.64
2018-08-27T10:52:21.275Z,43.64
2018-08-27T10:53:21.384Z,43.74
2018-08-27T10:54:21.319Z,43.74
2018-08-27T10:55:21.285Z,43.84
2018-08-27T10:56:21.325Z,43.84
2018-08-27T10:57:21.311Z,44.12
2018-08-27T10:58:21.379Z,43.84
2018-08-27T10:59:21.294Z,43.64
2018-08-27T11:00:21.298Z,42.99
2018-08-27T11:01:21.296Z,43.08
2018-08-27T11:02:21.305Z,43.01
2018-08-27T11:03:21.405Z,42.89
2018-08-27T11:04:21.372Z,43.10
2018-08-27T11:05:21.312Z,42.91
2018-08-27T11:06:21.308Z,43.30
2018-08-27T11:07:21.310Z,43.68
2018-08-27T11:08:21.331Z,43.78
2018-08-27T11:09:21.329Z,43.88
2018-08-27T11:10:21.353Z,44.07
2018-08-27T11:11:21.320Z,44.07
2018-08-27T11:12:21.327Z,44.46
2018-08-27T11:13:21.338Z,44.36
2018-08-27T11:14:21.328Z,44.46
2018-08-27T11:15:21.331Z,44.56
2018-08-27T11:16:21.339Z,44.56
2018-08-27T11:17:21.340Z,45.23
2018-08-27T11:18:21.344Z,44.75
2018-08-27T11:19:21.376Z,44.26
2018-08-27T11:20:21.476Z,44.77
2018-08-27T11:21:21.508Z,45.04
2018-08-27T11:22:21.371Z,44.56
2018-08-27T11:23:21.360Z,45.23
2018-08-27T11:24:21.393Z,45.81
2018-08-27T11:25:21.369Z,46.30
2018-08-27T11:26:21.393Z,46.39
2018-08-27T11:27:21.875Z,46.88
2018-08-27T11:28:21.384Z,47.26
2018-08-27T11:29:21.423Z,47.26
2018-08-27T11:30:21.410Z,46.97
2018-08-27T11:31:21.381Z,47.36
2018-08-27T11:32:21.401Z,47.65
2018-08-27T11:33:21.429Z,47.26
2018-08-27T11:34:21.395Z,47.94
2018-08-27T11:35:21.393Z,47.45
2018-08-27T11:36:21.398Z,47.45
2018-08-27T11:37:21.398Z,48.32
2018-08-27T11:38:21.409Z,48.52
2018-08-27T11:39:21.483Z,48.13
2018-08-27T11:40:21.415Z,48.32
2018-08-27T11:41:21.414Z,48.11
2018-08-27T11:42:21.427Z,48.32
2018-08-27T11:43:21.437Z,48.52
2018-08-27T11:44:21.422Z,48.71
2018-08-27T11:45:21.433Z,48.49
2018-08-27T11:46:21.457Z,48.32
2018-08-27T11:47:21.432Z,48.11
2018-08-27T11:48:21.433Z,48.30
2018-08-27T11:49:21.456Z,48.01
2018-08-27T11:50:21.527Z,48.49
2018-08-27T11:51:21.560Z,48.49
2018-08-27T11:52:21.454Z,48.59
2018-08-27T11:53:21.458Z,48.49
2018-08-27T11:54:21.462Z,48.49
2018-08-27T11:55:21.457Z,48.39
2018-08-27T11:56:21.465Z,48.39
2018-08-27T11:57:21.462Z,48.21
2018-08-27T11:58:21.728Z,48.86
2018-08-27T11:59:21.477Z,48.57
2018-08-27T12:00:21.473Z,49.34
2018-08-27T12:01:21.480Z,49.34
2018-08-27T12:02:21.483Z,49.34
2018-08-27T12:03:21.494Z,48.66
2018-08-27T12:04:21.488Z,49.05
2018-08-27T12:05:21.551Z,49.05
2018-08-27T12:06:21.501Z,48.86
2018-08-27T12:07:21.495Z,48.95
2018-08-27T12:08:21.496Z,49.15
2018-08-27T12:09:21.501Z,49.24
2018-08-27T12:10:21.506Z,48.66
2018-08-27T12:11:21.505Z,48.97
2018-08-27T12:12:21.531Z,48.30
2018-08-27T12:13:21.556Z,48.30
2018-08-27T12:14:21.516Z,48.59
2018-08-27T12:15:21.515Z,48.11
2018-08-27T12:16:21.563Z,48.30
2018-08-27T12:17:21.522Z,48.49
2018-08-27T12:18:21.545Z,48.49
2018-08-27T12:19:21.527Z,48.11
2018-08-27T12:20:21.537Z,48.21
2018-08-27T12:21:21.540Z,47.43
2018-08-27T12:22:21.538Z,47.91
2018-08-27T12:23:21.541Z,47.65
2018-08-27T12:24:21.541Z,47.45
2018-08-27T12:25:21.554Z,47.45
2018-08-27T12:26:21.548Z,47.65
2018-08-27T12:27:21.554Z,47.74
2018-08-27T12:28:21.902Z,47.84
2018-08-27T12:29:21.797Z,47.55
2018-08-27T12:30:21.561Z,47.45
2018-08-27T12:31:21.562Z,47.36
2018-08-27T12:32:21.601Z,47.94
2018-08-27T12:33:21.573Z,47.94
2018-08-27T12:34:21.575Z,47.84
2018-08-27T12:35:21.575Z,47.86
2018-08-27T12:36:21.581Z,47.28
2018-08-27T12:37:21.584Z,47.38
2018-08-27T12:38:21.588Z,46.90
2018-08-27T12:39:21.601Z,47.09
2018-08-27T12:40:22.397Z,46.90
2018-08-27T12:41:21.877Z,46.70
2018-08-27T12:42:21.746Z,46.44
2018-08-27T12:43:21.604Z,47.02
2018-08-27T12:44:21.606Z,46.73
2018-08-27T12:45:21.672Z,46.44
2018-08-27T12:46:21.662Z,46.53
2018-08-27T12:47:21.643Z,46.53
2018-08-27T12:48:21.626Z,47.41
2018-08-27T12:49:21.625Z,47.31
2018-08-27T12:50:21.629Z,47.41
2018-08-27T12:51:21.699Z,47.50
2018-08-27T12:52:21.636Z,47.50